Flight Track Log - Related Links

Times and Time Zones

All times are in EDT time to prevent confusion due to time zone crossing. See the SWA718 flight status page for this flight to view local times or setup timezone preferences in your user account.

Time Position Orientation Groundspeed Altitude Reporting Facility
EDT Latitude Longitude Course Direction KTS MPH feet Rate Location/Type
Mon 05:13:55 PM 29.6539 -95.2392 109° East 262 302 1,700  Level Houston Center
Mon 05:14:57 PM 29.5931 -95.2050 154° Southeast 249 287 4,300 2,710 Climbing Houston Center
Mon 05:15:59 PM 29.5875 -95.1231 94° East 271 312 7,300 2,952 Climbing Houston Center
Mon 05:17:01 PM 29.6036 -95.0342 78° East 283 326 10,400 2,710 Climbing Houston Center
Mon 05:18:03 PM 29.6250 -94.9131 78° East 307 353 12,900 2,419 Climbing Houston Center
Mon 05:19:05 PM 29.6408 -94.8025 81° East 341 392 15,400 1,452 Climbing Houston Center
Mon 05:20:07 PM 29.6464 -94.6803 87° East 374 430 15,900 672 Climbing Houston Center
Mon 05:21:10 PM 29.6550 -94.5553 85° East 389 448 16,800 912 Climbing Houston Center
Mon 05:22:12 PM 29.6625 -94.4278 86° East 396 456 17,800 1,306 Climbing Houston Center
Mon 05:23:14 PM 29.6714 -94.2964 86° East 408 470 19,500 1,984 Climbing Houston Center
Mon 05:24:16 PM 29.6806 -94.1331 86° East 425 489 21,900 2,129 Climbing Houston Center
Mon 05:25:18 PM 29.6867 -93.9886 87° East 447 514 23,900 1,790 Climbing Houston Center
Mon 05:26:20 PM 29.6850 -93.8458 91° East 449 517 25,600 1,500 Climbing Houston Center
Mon 05:27:22 PM 29.6831 -93.7003 91° East 457 526 27,000 1,403 Climbing Houston Center
Mon 05:28:24 PM 29.6814 -93.5514 91° East 466 536 28,500 1,488 Climbing Houston Center
Mon 05:29:27 PM 29.6789 -93.3711 91° East 473 544 30,100 1,344 Climbing Houston Center
Mon 05:30:29 PM 29.6778 -93.2206 90° East 476 548 31,300 1,113 Climbing Houston Center
Mon 05:31:31 PM 29.6753 -93.0678 91° East 480 552 32,400 1,065 Climbing Houston Center
Mon 05:32:33 PM 29.6725 -92.9117 91° East 490 564 33,500 1,065 Climbing Houston Center
Mon 05:33:35 PM 29.6694 -92.7561 91° East 490 564 34,600 1,152 Climbing Houston Center
Mon 05:34:38 PM 29.6656 -92.5700 91° East 488 562 35,900 1,104 Climbing Houston Center
Mon 05:35:40 PM 29.6378 -92.4200 102° East 481 554 36,900 537 Climbing Houston Center
Mon 05:36:41 PM 29.6089 -92.2689 102° East 485 558 37,000 49 Climbing Houston Center
Mon 05:37:43 PM 29.5803 -92.1153 102° East 491 565 37,000  Level Houston Center
Mon 05:38:46 PM 29.5517 -91.9631 102° East 490 564 37,000  Level Houston Center
Mon 05:39:48 PM 29.5161 -91.7797 103° East 490 564 37,000  Level Houston Center
Mon 05:40:50 PM 29.4856 -91.6261 103° East 489 563 37,000  Level Houston Center
Mon 05:41:52 PM 29.4569 -91.4742 102° East 490 564 37,000  Level Houston Center
Mon 05:42:54 PM 29.4258 -91.3231 103° East 487 560 37,000  Level Houston Center
Mon 05:43:56 PM 29.3975 -91.1714 102° East 488 562 37,000  Level Houston Center
Mon 05:44:58 PM 29.3675 -91.0197 103° East 489 563 37,000  Level Houston Center
Mon 05:46:00 PM 29.3311 -90.8389 103° East 488 562 37,000  Level Houston Center
Mon 05:47:03 PM 29.3011 -90.6894 103° East 484 557 37,000  Level Houston Center
Mon 05:48:05 PM 29.2697 -90.5372 103° East 490 564 37,000  Level Houston Center
Mon 05:49:07 PM 29.2394 -90.3872 103° East 489 563 37,000  Level Houston Center
Mon 05:50:09 PM 29.2019 -90.2378 106° East 490 564 37,000  Level Houston Center
Mon 05:51:11 PM 29.1583 -90.0592 106° East 489 563 37,000  Level Houston Center
Mon 05:52:13 PM 29.1219 -89.9081 105° East 494 568 37,000  Level Houston Center
Mon 05:53:15 PM 29.0839 -89.7567 106° East 497 572 37,000  Level Houston Center
Mon 05:54:17 PM 29.0461 -89.6075 106° East 494 568 37,000  Level Houston Center
Mon 05:55:19 PM 29.0086 -89.4522 105° East 504 580 37,000  Level Houston Center
Mon 05:56:22 PM 28.9639 -89.2719 106° East 497 572 37,000  Level Houston Center
Mon 05:57:24 PM 28.9250 -89.1194 106° East 499 574 37,000  Level Houston Center
Mon 05:58:26 PM 28.8864 -88.9678 106° East 501 577 37,000  Level Houston Center
Mon 05:59:28 PM 28.8481 -88.8144 106° East 502 578 37,000  Level Houston Center
Mon 06:00:30 PM 28.8086 -88.6606 106° East 507 583 37,000  Level Houston Center
Mon 06:01:32 PM 28.7692 -88.5089 106° East 504 580 37,000  Level Houston Center
Mon 06:02:34 PM 28.7222 -88.3247 106° East 505 581 37,000  Level Houston Center
Mon 06:03:36 PM 28.6811 -88.1717 107° East 506 582 37,000  Level Houston Center
Mon 06:04:38 PM 28.6389 -88.0069 106° East 509 586 37,000  Level Houston Center
Mon 06:05:40 PM 28.6008 -87.8642 107° East 507 583 37,000  Level Houston Center
Mon 06:06:42 PM 28.5581 -87.6992 106° East 510 587 37,000  Level Houston Center
Mon 06:07:40 PM 28.5125 -87.5389 108° East 503 579 37,000  Level Jacksonville Center
Mon 06:08:40 PM 28.4742 -87.3861 106° East 503 579 37,000 -50 Level Jacksonville Center
Mon 06:09:39 PM 28.4333 -87.2356 107° East 508 585 36,900  Descending Jacksonville Center
Mon 06:10:40 PM 28.3947 -87.0806 106° East 501 577 37,000 50 Climbing Jacksonville Center
Mon 06:11:40 PM 28.3517 -86.9256 107° East 507 583 37,000  Level Jacksonville Center
Mon 06:12:40 PM 28.3125 -86.7778 107° East 507 583 37,000  Level Jacksonville Center
Mon 06:13:40 PM 28.2708 -86.6300 108° East 499 574 37,000 -50 Level Jacksonville Center
Mon 06:14:40 PM 28.2272 -86.4778 108° East 504 580 36,900  Descending Jacksonville Center
Mon 06:15:40 PM 28.1856 -86.3256 107° East 504 580 37,000 50 Climbing Jacksonville Center
Mon 06:16:40 PM 28.1417 -86.1711 108° East 504 580 37,000  Level Jacksonville Center
Mon 06:17:40 PM 28.0994 -86.0217 108° East 504 580 37,000 -50 Level Jacksonville Center
Mon 06:18:40 PM 28.0572 -85.8675 107° East 504 580 36,900  Descending Jacksonville Center
Mon 06:19:40 PM 28.0147 -85.7181 108° East 504 580 37,000  Climbing Jacksonville Center
Mon 06:20:40 PM 27.9719 -85.5689 108° East 504 580 36,900  Descending Jacksonville Center
Mon 06:21:40 PM 27.9436 -85.4131 102° East 504 580 37,000 36 Climbing Jacksonville Center
Mon 06:23:27 PM 27.8989 -85.1419 101° East 506 582 37,000  Level Miami Center
Mon 06:24:27 PM 27.8900 -84.9700 93° East 506 582 37,000  Level Miami Center
Mon 06:25:27 PM 27.8781 -84.8119 95° East 506 582 37,000 -50 Level Miami Center
Mon 06:26:27 PM 27.8806 -84.6528 89° East 506 582 36,900  Descending Miami Center
Mon 06:27:27 PM 27.8744 -84.4928 92° East 506 582 37,000 50 Climbing Miami Center
Mon 06:28:27 PM 27.8747 -84.3311 90° East 501 577 37,000 -100 Level Miami Center
Mon 06:29:27 PM 27.8619 -84.1753 95° East 501 577 36,800 -1,100 Descending Miami Center
Mon 06:30:27 PM 27.8217 -84.0228 107° East 501 577 34,800 -2,000 Descending Miami Center
Mon 06:31:27 PM 27.7792 -83.8700 107° East 501 577 32,800 -1,900 Descending Miami Center
Mon 06:32:27 PM 27.7783 -83.7106 90° East 492 566 31,000 -1,850 Descending Miami Center
Mon 06:33:27 PM 27.7819 -83.5489 89° East 504 580 29,100 -2,150 Descending Miami Center
Mon 06:34:27 PM 27.7953 -83.3925 84° East 504 580 26,700 -2,750 Descending Miami Center
Mon 06:35:27 PM 27.8000 -83.2428 88° East 494 568 23,600 -1,850 Descending Miami Center
Mon 06:36:27 PM 27.8061 -83.1000 87° East 473 544 23,000 -350 Descending Miami Center
Mon 06:37:27 PM 27.8119 -82.9644 87° East 447 514 22,900 -150 Descending Miami Center
Mon 06:38:27 PM 27.8156 -82.8333 88° East 429 494 22,700 -600 Descending Miami Center
Mon 06:39:27 PM 27.8125 -82.7017 91° East 417 480 21,700 -1,050 Descending Miami Center
Mon 06:40:27 PM 27.8239 -82.5733 84° East 412 474 20,600 -1,100 Descending Miami Center
Mon 06:41:27 PM 27.8517 -82.4503 76° East 405 466 19,500 -1,000 Descending Miami Center
Mon 06:42:27 PM 27.8894 -82.3347 70° East 399 459 18,600 -800 Descending Miami Center
Mon 06:43:27 PM 27.9181 -82.2397 71° East 394 453 17,900 -1,340 Descending Miami Center
Mon 06:45:53 PM 28.0167 -81.9333 70° East 386 444 14,000 -1,427 Descending Orlando TRACON
Mon 06:46:53 PM 28.0667 -81.8333 60° Northeast 361 415 13,000 -574 Descending Orlando TRACON
Mon 06:47:48 PM 28.1167 -81.7500 56° Northeast 346 398 12,900 -835 Descending Orlando TRACON
Mon 06:48:48 PM 28.1667 -81.6667 56° Northeast 320 368 11,400 -1,238 Descending Orlando TRACON
Mon 06:49:54 PM 28.2333 -81.5833 48° Northeast 299 344 10,300 -667 Descending Orlando TRACON
Mon 06:50:54 PM 28.2833 -81.5167 50° Northeast 297 342 10,000 -158 Descending Orlando TRACON
Mon 06:51:48 PM 28.3500 -81.4667 33° Northeast 294 338 10,000 -550 Level Orlando TRACON
Mon 06:52:54 PM 28.4167 -81.4167 33° Northeast 271 312 8,900 -1,238 Descending Orlando TRACON
Mon 06:53:54 PM 28.4500 -81.3333 66° East 265 305 7,400 -1,550 Descending Orlando TRACON
Mon 06:54:54 PM 28.4833 -81.2667 60° Northeast 254 292 5,800 -1,500 Descending Orlando TRACON
Mon 06:55:54 PM 28.5167 -81.2000 60° Northeast 256 295 4,400 -1,316 Descending Orlando TRACON
Mon 06:56:48 PM 28.5500 -81.2500 307° West 217 250 3,300 -1,050 Descending Orlando TRACON
Mon 06:57:54 PM 28.5167 -81.2833 221° Southwest 133 153 2,300 -1,095 Descending Orlando TRACON
Mon 06:58:54 PM 28.4833 -81.3000 204° Southwest 139 160 1,000 -1,300 Descending Orlando TRACON
Mon 07:00:00 PM 28.4294 -81.3090 221° Southwest  Level Estimated

Login

Don't have an account? Register now (free) for customized features, flight alerts, and more!